sensor_id;sensor_type;location;lat;lon;timestamp;pressure;altitude;pressure_sealevel;temperature;humidity
42125;BME280;27787;44.594;11.046;2024-02-21T00:00:26;102030.59;;;8.95;98.91
42125;BME280;27787;44.594;11.046;2024-02-21T00:03:10;102026.06;;;8.91;98.95
42125;BME280;27787;44.594;11.046;2024-02-21T00:05:54;102011.97;;;8.89;99.23
42125;BME280;27787;44.594;11.046;2024-02-21T00:08:39;102006.66;;;8.88;99.23
42125;BME280;27787;44.594;11.046;2024-02-21T00:11:23;102008.22;;;8.82;99.08
42125;BME280;27787;44.594;11.046;2024-02-21T00:14:07;102012.53;;;8.80;99.01
42125;BME280;27787;44.594;11.046;2024-02-21T00:16:51;102002.69;;;8.75;98.89
42125;BME280;27787;44.594;11.046;2024-02-21T00:19:35;102009.72;;;8.74;98.84
42125;BME280;27787;44.594;11.046;2024-02-21T00:22:19;102005.16;;;8.70;98.46
42125;BME280;27787;44.594;11.046;2024-02-21T00:25:04;102011.22;;;8.68;98.26
42125;BME280;27787;44.594;11.046;2024-02-21T00:27:49;102005.94;;;8.68;98.18
42125;BME280;27787;44.594;11.046;2024-02-21T00:30:32;102011.84;;;8.61;97.52
42125;BME280;27787;44.594;11.046;2024-02-21T00:33:17;102002.28;;;8.63;97.70
42125;BME280;27787;44.594;11.046;2024-02-21T00:36:01;102002.81;;;8.78;96.79
42125;BME280;27787;44.594;11.046;2024-02-21T00:38:45;102002.16;;;8.85;95.11
42125;BME280;27787;44.594;11.046;2024-02-21T00:41:29;102000.06;;;8.75;94.62
42125;BME280;27787;44.594;11.046;2024-02-21T00:44:14;102002.41;;;8.67;94.90
42125;BME280;27787;44.594;11.046;2024-02-21T00:46:58;102004.06;;;8.64;95.52
42125;BME280;27787;44.594;11.046;2024-02-21T00:49:42;102006.78;;;8.67;95.40
42125;BME280;27787;44.594;11.046;2024-02-21T00:52:26;102012.94;;;8.67;94.98
42125;BME280;27787;44.594;11.046;2024-02-21T00:55:10;102009.44;;;8.67;95.36
42125;BME280;27787;44.594;11.046;2024-02-21T00:57:54;101995.75;;;8.77;95.05
42125;BME280;27787;44.594;11.046;2024-02-21T01:00:39;102000.25;;;8.81;94.78
42125;BME280;27787;44.594;11.046;2024-02-21T01:03:23;102001.22;;;8.83;94.69
42125;BME280;27787;44.594;11.046;2024-02-21T01:06:07;102000.25;;;8.81;94.57
42125;BME280;27787;44.594;11.046;2024-02-21T01:08:51;101995.66;;;8.74;94.18
42125;BME280;27787;44.594;11.046;2024-02-21T01:11:35;101989.00;;;8.60;94.54
42125;BME280;27787;44.594;11.046;2024-02-21T01:14:19;101987.75;;;8.48;94.99
42125;BME280;27787;44.594;11.046;2024-02-21T01:17:04;101987.25;;;8.35;95.43
42125;BME280;27787;44.594;11.046;2024-02-21T01:19:49;101991.34;;;8.28;96.29
42125;BME280;27787;44.594;11.046;2024-02-21T01:22:33;101986.03;;;8.26;96.76
42125;BME280;27787;44.594;11.046;2024-02-21T01:25:18;101992.19;;;8.27;96.61
42125;BME280;27787;44.594;11.046;2024-02-21T01:28:02;101983.41;;;8.26;96.67
42125;BME280;27787;44.594;11.046;2024-02-21T01:30:46;101984.97;;;8.21;96.58
42125;BME280;27787;44.594;11.046;2024-02-21T01:33:30;101993.56;;;8.17;96.21
42125;BME280;27787;44.594;11.046;2024-02-21T01:36:18;101981.22;;;8.15;96.57
42125;BME280;27787;44.594;11.046;2024-02-21T01:39:02;101991.06;;;8.20;96.64
42125;BME280;27787;44.594;11.046;2024-02-21T01:41:47;101995.66;;;8.26;96.58
42125;BME280;27787;44.594;11.046;2024-02-21T01:44:31;101987.03;;;8.30;96.56
42125;BME280;27787;44.594;11.046;2024-02-21T01:47:16;101992.72;;;8.41;97.08
42125;BME280;27787;44.594;11.046;2024-02-21T01:50:01;101995.63;;;8.48;98.67
42125;BME280;27787;44.594;11.046;2024-02-21T01:52:46;102000.34;;;8.58;99.27
42125;BME280;27787;44.594;11.046;2024-02-21T01:55:32;101999.75;;;8.66;99.82
42125;BME280;27787;44.594;11.046;2024-02-21T01:58:18;102003.22;;;8.65;99.38
42125;BME280;27787;44.594;11.046;2024-02-21T02:01:03;102000.25;;;8.55;99.18
42125;BME280;27787;44.594;11.046;2024-02-21T02:03:47;101995.63;;;8.48;99.30
42125;BME280;27787;44.594;11.046;2024-02-21T02:06:31;102003.38;;;8.45;99.75
42125;BME280;27787;44.594;11.046;2024-02-21T02:09:15;101994.88;;;8.52;100.00
42125;BME280;27787;44.594;11.046;2024-02-21T02:12:00;101993.34;;;8.59;99.76
42125;BME280;27787;44.594;11.046;2024-02-21T02:14:44;101989.50;;;8.73;100.00
42125;BME280;27787;44.594;11.046;2024-02-21T02:17:29;101987.28;;;8.85;99.74
42125;BME280;27787;44.594;11.046;2024-02-21T02:20:13;101992.88;;;8.96;97.81
42125;BME280;27787;44.594;11.046;2024-02-21T02:22:59;101999.22;;;9.01;95.90
42125;BME280;27787;44.594;11.046;2024-02-21T02:25:45;101998.09;;;8.95;94.31
42125;BME280;27787;44.594;11.046;2024-02-21T02:28:32;101993.50;;;8.88;93.89
42125;BME280;27787;44.594;11.046;2024-02-21T02:31:17;101994.00;;;8.77;94.51
42125;BME280;27787;44.594;11.046;2024-02-21T02:34:01;101989.31;;;8.69;94.83
42125;BME280;27787;44.594;11.046;2024-02-21T02:36:45;101989.78;;;8.57;94.89
42125;BME280;27787;44.594;11.046;2024-02-21T02:39:32;101989.53;;;8.49;95.13
42125;BME280;27787;44.594;11.046;2024-02-21T02:42:16;101987.59;;;8.45;95.21
42125;BME280;27787;44.594;11.046;2024-02-21T02:45:00;101988.41;;;8.43;95.28
42125;BME280;27787;44.594;11.046;2024-02-21T02:47:45;101988.06;;;8.34;95.03
42125;BME280;27787;44.594;11.046;2024-02-21T02:50:32;101985.97;;;8.25;95.40
42125;BME280;27787;44.594;11.046;2024-02-21T02:53:16;101982.06;;;8.14;95.27
42125;BME280;27787;44.594;11.046;2024-02-21T02:56:00;101977.06;;;7.97;96.04
42125;BME280;27787;44.594;11.046;2024-02-21T02:58:44;101980.97;;;7.85;96.81
42125;BME280;27787;44.594;11.046;2024-02-21T03:01:28;101978.16;;;7.80;97.65
42125;BME280;27787;44.594;11.046;2024-02-21T03:04:12;101977.41;;;7.83;98.26
42125;BME280;27787;44.594;11.046;2024-02-21T03:06:56;101970.41;;;7.83;98.31
42125;BME280;27787;44.594;11.046;2024-02-21T03:09:41;101971.56;;;7.91;98.31
42125;BME280;27787;44.594;11.046;2024-02-21T03:12:26;101975.44;;;8.01;97.35
42125;BME280;27787;44.594;11.046;2024-02-21T03:15:12;101966.81;;;8.05;96.34
42125;BME280;27787;44.594;11.046;2024-02-21T03:17:57;101967.75;;;8.07;95.95
42125;BME280;27787;44.594;11.046;2024-02-21T03:20:41;101975.16;;;7.93;95.63
42125;BME280;27787;44.594;11.046;2024-02-21T03:23:25;101973.94;;;7.84;96.13
42125;BME280;27787;44.594;11.046;2024-02-21T03:26:09;101975.25;;;7.73;96.45
42125;BME280;27787;44.594;11.046;2024-02-21T03:28:53;101973.16;;;7.64;96.56
42125;BME280;27787;44.594;11.046;2024-02-21T03:31:37;101972.03;;;7.57;97.10
42125;BME280;27787;44.594;11.046;2024-02-21T03:34:21;101971.84;;;7.53;97.51
42125;BME280;27787;44.594;11.046;2024-02-21T03:37:06;101974.28;;;7.48;97.99
42125;BME280;27787;44.594;11.046;2024-02-21T03:39:50;101968.88;;;7.44;97.86
42125;BME280;27787;44.594;11.046;2024-02-21T03:42:35;101973.81;;;7.36;98.02
42125;BME280;27787;44.594;11.046;2024-02-21T03:45:18;101972.78;;;7.32;97.98
42125;BME280;27787;44.594;11.046;2024-02-21T03:48:03;101974.31;;;7.27;97.67
42125;BME280;27787;44.594;11.046;2024-02-21T03:50:47;101970.69;;;7.24;96.87
42125;BME280;27787;44.594;11.046;2024-02-21T03:53:31;101975.81;;;7.21;96.43
42125;BME280;27787;44.594;11.046;2024-02-21T03:56:15;101975.75;;;7.19;96.22
42125;BME280;27787;44.594;11.046;2024-02-21T03:58:59;101977.50;;;7.19;95.86
42125;BME280;27787;44.594;11.046;2024-02-21T04:01:43;101981.78;;;7.17;95.30
42125;BME280;27787;44.594;11.046;2024-02-21T04:04:27;101982.59;;;7.16;95.12
42125;BME280;27787;44.594;11.046;2024-02-21T04:07:12;101987.84;;;7.16;94.64
42125;BME280;27787;44.594;11.046;2024-02-21T04:09:56;101986.16;;;7.16;94.29
42125;BME280;27787;44.594;11.046;2024-02-21T04:12:41;101997.47;;;7.15;93.95
42125;BME280;27787;44.594;11.046;2024-02-21T04:15:24;102002.72;;;7.15;93.48
42125;BME280;27787;44.594;11.046;2024-02-21T04:18:08;101999.50;;;7.22;92.65
42125;BME280;27787;44.594;11.046;2024-02-21T04:20:52;101994.19;;;7.21;92.23
42125;BME280;27787;44.594;11.046;2024-02-21T04:23:36;101998.34;;;7.16;92.24
42125;BME280;27787;44.594;11.046;2024-02-21T04:26:21;101999.06;;;7.12;92.38
42125;BME280;27787;44.594;11.046;2024-02-21T04:29:05;101989.22;;;7.06;92.49
42125;BME280;27787;44.594;11.046;2024-02-21T04:31:49;101991.69;;;7.03;92.55
42125;BME280;27787;44.594;11.046;2024-02-21T04:34:33;101988.19;;;7.02;92.53
42125;BME280;27787;44.594;11.046;2024-02-21T04:37:17;101992.41;;;6.99;92.56
42125;BME280;27787;44.594;11.046;2024-02-21T04:40:01;101991.56;;;7.00;92.86
42125;BME280;27787;44.594;11.046;2024-02-21T04:42:45;101992.75;;;7.06;93.19
42125;BME280;27787;44.594;11.046;2024-02-21T04:45:30;101997.41;;;7.14;94.08
42125;BME280;27787;44.594;11.046;2024-02-21T04:48:14;101995.72;;;7.16;93.28
42125;BME280;27787;44.594;11.046;2024-02-21T04:50:58;101986.00;;;7.13;93.00
42125;BME280;27787;44.594;11.046;2024-02-21T04:53:43;101994.53;;;7.07;92.83
42125;BME280;27787;44.594;11.046;2024-02-21T04:56:27;101995.94;;;6.99;93.43
42125;BME280;27787;44.594;11.046;2024-02-21T04:59:11;101994.81;;;6.93;93.35
42125;BME280;27787;44.594;11.046;2024-02-21T05:01:55;102000.72;;;6.89;93.56
42125;BME280;27787;44.594;11.046;2024-02-21T05:04:40;102001.44;;;6.85;94.00
42125;BME280;27787;44.594;11.046;2024-02-21T05:07:25;102005.84;;;6.86;94.12
42125;BME280;27787;44.594;11.046;2024-02-21T05:10:09;102007.66;;;6.87;93.98
42125;BME280;27787;44.594;11.046;2024-02-21T05:12:54;102008.75;;;6.92;93.65
42125;BME280;27787;44.594;11.046;2024-02-21T05:15:38;102015.91;;;6.96;93.11
42125;BME280;27787;44.594;11.046;2024-02-21T05:18:23;102008.03;;;6.96;93.17
42125;BME280;27787;44.594;11.046;2024-02-21T05:21:07;102009.91;;;6.98;93.40
42125;BME280;27787;44.594;11.046;2024-02-21T05:23:51;102017.88;;;7.01;93.10
42125;BME280;27787;44.594;11.046;2024-02-21T05:26:35;102021.41;;;7.02;93.10
42125;BME280;27787;44.594;11.046;2024-02-21T05:29:19;102018.09;;;7.06;93.44
42125;BME280;27787;44.594;11.046;2024-02-21T05:32:04;102016.88;;;7.19;92.47
42125;BME280;27787;44.594;11.046;2024-02-21T05:34:49;102018.06;;;7.27;91.60
42125;BME280;27787;44.594;11.046;2024-02-21T05:37:34;102018.50;;;7.37;90.86
42125;BME280;27787;44.594;11.046;2024-02-21T05:40:18;102022.09;;;7.39;90.89
42125;BME280;27787;44.594;11.046;2024-02-21T05:43:02;102013.53;;;7.44;90.96
42125;BME280;27787;44.594;11.046;2024-02-21T05:45:47;102013.75;;;7.50;90.79
42125;BME280;27787;44.594;11.046;2024-02-21T05:48:32;102008.13;;;7.40;89.94
42125;BME280;27787;44.594;11.046;2024-02-21T05:51:19;102014.94;;;7.35;90.72
42125;BME280;27787;44.594;11.046;2024-02-21T05:54:07;102011.75;;;7.43;91.28
42125;BME280;27787;44.594;11.046;2024-02-21T05:56:51;102011.13;;;7.50;91.19
42125;BME280;27787;44.594;11.046;2024-02-21T05:59:40;102007.72;;;7.52;90.53
42125;BME280;27787;44.594;11.046;2024-02-21T06:02:25;102014.53;;;7.47;89.79
42125;BME280;27787;44.594;11.046;2024-02-21T06:05:11;102013.19;;;7.36;89.45
42125;BME280;27787;44.594;11.046;2024-02-21T06:07:55;102019.06;;;7.08;89.23
42125;BME280;27787;44.594;11.046;2024-02-21T06:10:39;102029.06;;;6.76;90.30
42125;BME280;27787;44.594;11.046;2024-02-21T06:13:24;102022.03;;;6.55;91.98
42125;BME280;27787;44.594;11.046;2024-02-21T06:16:08;102018.72;;;6.39;93.07
42125;BME280;27787;44.594;11.046;2024-02-21T06:18:53;102021.34;;;6.39;94.98
42125;BME280;27787;44.594;11.046;2024-02-21T06:21:39;102032.28;;;6.50;95.05
42125;BME280;27787;44.594;11.046;2024-02-21T06:24:24;102032.75;;;6.61;94.76
42125;BME280;27787;44.594;11.046;2024-02-21T06:27:11;102032.47;;;6.74;94.42
42125;BME280;27787;44.594;11.046;2024-02-21T06:29:55;102036.53;;;6.87;93.97
42125;BME280;27787;44.594;11.046;2024-02-21T06:32:40;102037.63;;;6.92;93.28
42125;BME280;27787;44.594;11.046;2024-02-21T06:35:24;102032.88;;;6.83;93.33
42125;BME280;27787;44.594;11.046;2024-02-21T06:38:08;102031.97;;;6.83;93.98
42125;BME280;27787;44.594;11.046;2024-02-21T06:40:53;102035.19;;;6.96;93.87
42125;BME280;27787;44.594;11.046;2024-02-21T06:43:38;102036.59;;;7.09;93.09
42125;BME280;27787;44.594;11.046;2024-02-21T06:46:26;102047.22;;;7.12;92.01
42125;BME280;27787;44.594;11.046;2024-02-21T06:49:10;102053.13;;;7.06;91.30
42125;BME280;27787;44.594;11.046;2024-02-21T06:52:01;102050.44;;;7.05;91.89
42125;BME280;27787;44.594;11.046;2024-02-21T06:54:46;102045.31;;;7.08;92.19
42125;BME280;27787;44.594;11.046;2024-02-21T06:57:33;102044.72;;;7.15;91.29
42125;BME280;27787;44.594;11.046;2024-02-21T07:00:17;102054.03;;;7.07;91.11
42125;BME280;27787;44.594;11.046;2024-02-21T07:03:02;102052.78;;;6.99;91.20
42125;BME280;27787;44.594;11.046;2024-02-21T07:05:47;102053.09;;;6.86;91.87
42125;BME280;27787;44.594;11.046;2024-02-21T07:08:31;102054.34;;;6.74;92.89
42125;BME280;27787;44.594;11.046;2024-02-21T07:11:16;102060.56;;;6.76;93.46
42125;BME280;27787;44.594;11.046;2024-02-21T07:14:00;102066.03;;;6.81;93.56
42125;BME280;27787;44.594;11.046;2024-02-21T07:16:45;102062.56;;;6.82;93.95
42125;BME280;27787;44.594;11.046;2024-02-21T07:19:29;102060.97;;;6.86;94.06
42125;BME280;27787;44.594;11.046;2024-02-21T07:22:13;102064.84;;;6.94;93.98
42125;BME280;27787;44.594;11.046;2024-02-21T07:24:58;102070.47;;;7.03;94.07
42125;BME280;27787;44.594;11.046;2024-02-21T07:27:44;102072.47;;;7.08;93.66
42125;BME280;27787;44.594;11.046;2024-02-21T07:30:28;102071.81;;;7.14;93.21
42125;BME280;27787;44.594;11.046;2024-02-21T07:33:12;102065.03;;;7.19;92.91
42125;BME280;27787;44.594;11.046;2024-02-21T07:35:56;102066.06;;;7.23;92.51
42125;BME280;27787;44.594;11.046;2024-02-21T07:38:40;102063.63;;;7.27;91.75
42125;BME280;27787;44.594;11.046;2024-02-21T07:41:25;102077.13;;;7.36;91.13
42125;BME280;27787;44.594;11.046;2024-02-21T07:44:10;102069.59;;;7.44;90.31
42125;BME280;27787;44.594;11.046;2024-02-21T07:46:54;102076.94;;;7.53;89.51
42125;BME280;27787;44.594;11.046;2024-02-21T07:49:44;102077.25;;;7.60;88.89
42125;BME280;27787;44.594;11.046;2024-02-21T07:52:28;102088.25;;;7.73;88.93
42125;BME280;27787;44.594;11.046;2024-02-21T07:55:14;102077.41;;;7.86;88.66
42125;BME280;27787;44.594;11.046;2024-02-21T07:57:58;102079.41;;;7.93;87.85
42125;BME280;27787;44.594;11.046;2024-02-21T08:00:42;102070.28;;;8.06;87.58
42125;BME280;27787;44.594;11.046;2024-02-21T08:03:26;102073.38;;;8.18;87.26
42125;BME280;27787;44.594;11.046;2024-02-21T08:06:15;102075.47;;;8.26;87.10
42125;BME280;27787;44.594;11.046;2024-02-21T08:08:59;102091.84;;;8.42;87.60
42125;BME280;27787;44.594;11.046;2024-02-21T08:11:44;102086.00;;;8.49;87.00
42125;BME280;27787;44.594;11.046;2024-02-21T08:14:29;102085.09;;;8.48;86.68
42125;BME280;27787;44.594;11.046;2024-02-21T08:17:13;102080.72;;;8.49;86.71
42125;BME280;27787;44.594;11.046;2024-02-21T08:19:57;102082.56;;;8.51;87.17
42125;BME280;27787;44.594;11.046;2024-02-21T08:22:41;102075.69;;;8.55;87.23
42125;BME280;27787;44.594;11.046;2024-02-21T08:25:26;102081.22;;;8.63;87.38
42125;BME280;27787;44.594;11.046;2024-02-21T08:28:09;102082.44;;;8.72;87.32
42125;BME280;27787;44.594;11.046;2024-02-21T08:30:53;102088.94;;;8.82;87.03
42125;BME280;27787;44.594;11.046;2024-02-21T08:33:38;102090.97;;;8.89;87.41
42125;BME280;27787;44.594;11.046;2024-02-21T08:36:22;102094.81;;;8.99;87.55
42125;BME280;27787;44.594;11.046;2024-02-21T08:39:06;102102.19;;;9.09;87.77
42125;BME280;27787;44.594;11.046;2024-02-21T08:41:51;102101.56;;;9.16;87.25
42125;BME280;27787;44.594;11.046;2024-02-21T08:44:39;102110.50;;;9.21;87.37
42125;BME280;27787;44.594;11.046;2024-02-21T08:47:24;102108.94;;;9.26;87.52
42125;BME280;27787;44.594;11.046;2024-02-21T08:50:09;102105.56;;;9.30;87.90
42125;BME280;27787;44.594;11.046;2024-02-21T08:52:54;102104.16;;;9.40;87.92
42125;BME280;27787;44.594;11.046;2024-02-21T08:55:39;102091.25;;;9.49;87.49
42125;BME280;27787;44.594;11.046;2024-02-21T08:58:23;102092.56;;;9.62;87.52
42125;BME280;27787;44.594;11.046;2024-02-21T09:01:08;102091.91;;;9.69;87.47
42125;BME280;27787;44.594;11.046;2024-02-21T09:03:55;102087.72;;;9.75;87.52
42125;BME280;27787;44.594;11.046;2024-02-21T09:06:40;102087.94;;;9.82;87.52
42125;BME280;27787;44.594;11.046;2024-02-21T09:09:26;102088.97;;;9.87;86.74
42125;BME280;27787;44.594;11.046;2024-02-21T09:12:12;102081.03;;;9.87;85.83
42125;BME280;27787;44.594;11.046;2024-02-21T09:14:59;102084.69;;;9.90;86.24
42125;BME280;27787;44.594;11.046;2024-02-21T09:17:43;102077.91;;;9.98;86.85
42125;BME280;27787;44.594;11.046;2024-02-21T09:20:27;102077.28;;;10.07;85.49
42125;BME280;27787;44.594;11.046;2024-02-21T09:23:13;102081.16;;;10.18;84.71
42125;BME280;27787;44.594;11.046;2024-02-21T09:25:57;102075.38;;;10.30;83.51
42125;BME280;27787;44.594;11.046;2024-02-21T09:28:44;102071.22;;;10.38;81.97
42125;BME280;27787;44.594;11.046;2024-02-21T09:31:29;102077.63;;;10.46;81.95
42125;BME280;27787;44.594;11.046;2024-02-21T09:34:13;102074.34;;;10.55;82.62
42125;BME280;27787;44.594;11.046;2024-02-21T09:36:57;102056.00;;;10.59;82.72
42125;BME280;27787;44.594;11.046;2024-02-21T09:39:41;102058.78;;;10.66;83.16
42125;BME280;27787;44.594;11.046;2024-02-21T09:42:39;102062.56;;;10.74;83.91
42125;BME280;27787;44.594;11.046;2024-02-21T09:45:24;102055.66;;;10.80;84.24
42125;BME280;27787;44.594;11.046;2024-02-21T09:51:09;102057.63;;;10.87;84.67
42125;BME280;27787;44.594;11.046;2024-02-21T09:53:54;102055.06;;;10.90;84.68
42125;BME280;27787;44.594;11.046;2024-02-21T09:56:40;102045.44;;;10.92;85.09
42125;BME280;27787;44.594;11.046;2024-02-21T09:59:27;102047.31;;;10.97;85.15
42125;BME280;27787;44.594;11.046;2024-02-21T10:02:12;102053.66;;;11.03;85.23
42125;BME280;27787;44.594;11.046;2024-02-21T10:04:57;102052.03;;;11.08;86.11
42125;BME280;27787;44.594;11.046;2024-02-21T10:07:43;102048.53;;;11.09;86.10
42125;BME280;27787;44.594;11.046;2024-02-21T10:10:27;102041.53;;;11.11;86.52
42125;BME280;27787;44.594;11.046;2024-02-21T10:13:26;102040.75;;;11.15;86.49
42125;BME280;27787;44.594;11.046;2024-02-21T10:16:11;102031.16;;;11.19;86.53
42125;BME280;27787;44.594;11.046;2024-02-21T10:18:56;102034.75;;;11.21;86.54
42125;BME280;27787;44.594;11.046;2024-02-21T10:21:40;102029.56;;;11.26;86.48
42125;BME280;27787;44.594;11.046;2024-02-21T10:24:27;102021.75;;;11.30;86.50
42125;BME280;27787;44.594;11.046;2024-02-21T10:27:12;102022.81;;;11.37;85.98
42125;BME280;27787;44.594;11.046;2024-02-21T10:29:56;102015.81;;;11.40;85.45
42125;BME280;27787;44.594;11.046;2024-02-21T10:32:50;102006.31;;;11.47;84.14
42125;BME280;27787;44.594;11.046;2024-02-21T10:35:36;102011.63;;;11.48;84.04
42125;BME280;27787;44.594;11.046;2024-02-21T10:38:20;102011.75;;;11.55;83.62
42125;BME280;27787;44.594;11.046;2024-02-21T10:41:10;102013.66;;;11.60;83.14
42125;BME280;27787;44.594;11.046;2024-02-21T10:43:59;102004.94;;;11.64;82.91
42125;BME280;27787;44.594;11.046;2024-02-21T10:46:49;102011.25;;;11.71;82.59
42125;BME280;27787;44.594;11.046;2024-02-21T10:49:38;102003.50;;;11.78;82.48
42125;BME280;27787;44.594;11.046;2024-02-21T10:52:58;102002.84;;;11.87;82.40
42125;BME280;27787;44.594;11.046;2024-02-21T10:55:56;101994.22;;;11.97;81.30
42125;BME280;27787;44.594;11.046;2024-02-21T10:58:43;101988.13;;;12.00;81.32
42125;BME280;27787;44.594;11.046;2024-02-21T11:01:29;101990.91;;;12.07;81.48
42125;BME280;27787;44.594;11.046;2024-02-21T11:04:16;101999.94;;;12.16;80.99
42125;BME280;27787;44.594;11.046;2024-02-21T11:07:01;101994.00;;;12.27;79.58
42125;BME280;27787;44.594;11.046;2024-02-21T11:09:52;101992.34;;;12.34;79.65
42125;BME280;27787;44.594;11.046;2024-02-21T11:12:37;101988.03;;;12.39;80.09
42125;BME280;27787;44.594;11.046;2024-02-21T11:15:26;101991.63;;;12.41;79.89
42125;BME280;27787;44.594;11.046;2024-02-21T11:18:11;101989.03;;;12.46;81.31
42125;BME280;27787;44.594;11.046;2024-02-21T11:20:55;101968.00;;;12.52;81.65
42125;BME280;27787;44.594;11.046;2024-02-21T11:23:39;101967.16;;;12.54;82.04
42125;BME280;27787;44.594;11.046;2024-02-21T11:26:28;101961.94;;;12.60;82.66
42125;BME280;27787;44.594;11.046;2024-02-21T11:29:12;101957.53;;;12.61;82.41
42125;BME280;27787;44.594;11.046;2024-02-21T11:32:09;101947.91;;;12.64;82.98
42125;BME280;27787;44.594;11.046;2024-02-21T11:35:01;101944.44;;;12.68;83.03
42125;BME280;27787;44.594;11.046;2024-02-21T11:37:48;101941.81;;;12.70;82.38
42125;BME280;27787;44.594;11.046;2024-02-21T11:40:33;101926.84;;;12.74;82.74
42125;BME280;27787;44.594;11.046;2024-02-21T11:43:18;101919.91;;;12.79;83.75
42125;BME280;27787;44.594;11.046;2024-02-21T11:46:02;101912.03;;;12.85;84.78
42125;BME280;27787;44.594;11.046;2024-02-21T11:48:47;101909.44;;;12.88;84.43
42125;BME280;27787;44.594;11.046;2024-02-21T11:51:34;101903.34;;;12.92;84.79
42125;BME280;27787;44.594;11.046;2024-02-21T11:54:18;101895.44;;;12.95;84.79
42125;BME280;27787;44.594;11.046;2024-02-21T11:57:02;101895.47;;;12.98;84.99
42125;BME280;27787;44.594;11.046;2024-02-21T11:59:48;101890.19;;;13.01;83.79
42125;BME280;27787;44.594;11.046;2024-02-21T12:02:33;101884.09;;;13.05;84.02
42125;BME280;27787;44.594;11.046;2024-02-21T12:05:21;101876.22;;;13.10;83.50
42125;BME280;27787;44.594;11.046;2024-02-21T12:08:05;101871.84;;;13.13;83.38
42125;BME280;27787;44.594;11.046;2024-02-21T12:10:50;101869.28;;;13.18;83.25
42125;BME280;27787;44.594;11.046;2024-02-21T12:13:35;101868.47;;;13.22;82.80
42125;BME280;27787;44.594;11.046;2024-02-21T12:16:19;101864.97;;;13.24;82.80
42125;BME280;27787;44.594;11.046;2024-02-21T12:19:04;101865.88;;;13.28;82.23
42125;BME280;27787;44.594;11.046;2024-02-21T12:21:49;101865.97;;;13.33;82.17
42125;BME280;27787;44.594;11.046;2024-02-21T12:24:36;101863.38;;;13.37;81.22
42125;BME280;27787;44.594;11.046;2024-02-21T12:27:24;101859.91;;;13.41;80.90
42125;BME280;27787;44.594;11.046;2024-02-21T12:30:10;101847.56;;;13.45;81.04
42125;BME280;27787;44.594;11.046;2024-02-21T12:32:54;101847.63;;;13.49;81.09
42125;BME280;27787;44.594;11.046;2024-02-21T12:35:38;101855.72;;;13.60;79.83
42125;BME280;27787;44.594;11.046;2024-02-21T12:38:22;101843.34;;;13.61;79.29
42125;BME280;27787;44.594;11.046;2024-02-21T12:41:06;101847.75;;;13.60;78.65
42125;BME280;27787;44.594;11.046;2024-02-21T12:43:51;101846.84;;;13.56;77.97
42125;BME280;27787;44.594;11.046;2024-02-21T12:46:35;101843.31;;;13.56;77.93
42125;BME280;27787;44.594;11.046;2024-02-21T12:49:19;101830.94;;;13.56;77.63
42125;BME280;27787;44.594;11.046;2024-02-21T12:52:03;101820.31;;;13.58;77.64
42125;BME280;27787;44.594;11.046;2024-02-21T12:54:48;101817.72;;;13.64;77.93
42125;BME280;27787;44.594;11.046;2024-02-21T12:57:32;101817.81;;;13.69;78.18
42125;BME280;27787;44.594;11.046;2024-02-21T13:00:17;101801.94;;;13.73;78.25
42125;BME280;27787;44.594;11.046;2024-02-21T13:03:01;101806.38;;;13.77;78.19
42125;BME280;27787;44.594;11.046;2024-02-21T13:05:46;101792.31;;;13.84;78.24
42125;BME280;27787;44.594;11.046;2024-02-21T13:08:32;101786.16;;;13.88;77.50
42125;BME280;27787;44.594;11.046;2024-02-21T13:11:18;101791.50;;;13.93;76.13
42125;BME280;27787;44.594;11.046;2024-02-21T13:14:02;101782.69;;;13.94;75.50
42125;BME280;27787;44.594;11.046;2024-02-21T13:16:46;101773.88;;;13.97;75.26
42125;BME280;27787;44.594;11.046;2024-02-21T13:19:30;101769.47;;;14.00;75.23
42125;BME280;27787;44.594;11.046;2024-02-21T13:22:14;101771.34;;;14.09;75.26
42125;BME280;27787;44.594;11.046;2024-02-21T13:25:00;101768.72;;;14.15;74.83
42125;BME280;27787;44.594;11.046;2024-02-21T13:27:44;101761.69;;;14.20;74.21
42125;BME280;27787;44.594;11.046;2024-02-21T13:30:29;101751.09;;;14.25;74.31
42125;BME280;27787;44.594;11.046;2024-02-21T13:33:13;101752.91;;;14.30;73.55
42125;BME280;27787;44.594;11.046;2024-02-21T13:35:57;101740.56;;;14.32;73.50
42125;BME280;27787;44.594;11.046;2024-02-21T13:38:42;101741.44;;;14.33;72.60
42125;BME280;27787;44.594;11.046;2024-02-21T13:41:26;101736.13;;;14.34;72.15
42125;BME280;27787;44.594;11.046;2024-02-21T13:44:11;101727.28;;;14.38;71.79
42125;BME280;27787;44.594;11.046;2024-02-21T13:46:56;101732.69;;;14.44;71.68
42125;BME280;27787;44.594;11.046;2024-02-21T13:49:40;101718.56;;;14.50;71.63
42125;BME280;27787;44.594;11.046;2024-02-21T13:52:25;101723.91;;;14.55;71.38
42125;BME280;27787;44.594;11.046;2024-02-21T13:55:12;101723.97;;;14.62;71.39
42125;BME280;27787;44.594;11.046;2024-02-21T13:57:56;101725.75;;;14.66;71.10
42125;BME280;27787;44.594;11.046;2024-02-21T14:00:41;101717.78;;;14.71;70.70
42125;BME280;27787;44.594;11.046;2024-02-21T14:03:25;101716.94;;;14.73;70.46
42125;BME280;27787;44.594;11.046;2024-02-21T14:06:10;101708.09;;;14.79;70.36
42125;BME280;27787;44.594;11.046;2024-02-21T14:08:54;101697.47;;;14.79;69.30
42125;BME280;27787;44.594;11.046;2024-02-21T14:11:39;101701.00;;;14.81;69.22
42125;BME280;27787;44.594;11.046;2024-02-21T14:14:24;101693.94;;;14.83;67.93
42125;BME280;27787;44.594;11.046;2024-02-21T14:17:09;101695.75;;;14.90;67.02
42125;BME280;27787;44.594;11.046;2024-02-21T14:19:54;101683.34;;;14.91;66.18